Aérodrome :
LOGIN :

S'inscrire | Disclaimer

   EN    FR    IT 

 










Légende :    VFR   VFR Marginal   IFR   IFR Intensif   IFR Très Intensif
Visi : 
Plafond : 
>= 8 km
>= 3000ft
5 à 8 km
1000 à 3000 ft
1500m à 5 km
500 à 1000 ft
800 à 1500m
200 à 500 ft
< 800m
< 200 ft
Symboles :   Orages  Brouillard  Fortes neiges  Fortes précipitations  Vent > 20 kt
SIGMETs :   Divers  Orages  Givrage  Turbulence  Onde Orograph.  Cendres Volcan.







- Altitude de l'aérodrome : 1910 ft
- Code IATA : RDZ
- Voir les cartes d'approche


LFCR - Rodez

DERNIER METAR :
  • 230230Z AUTO VRB02KT CAVOK 16/14 Q1021 TEMPO BKN010

METARs EXPIRÉS :
  • 230200Z AUTO VRB02KT CAVOK 16/14 Q1021 TEMPO BKN010
  • 230130Z AUTO 00000KT CAVOK 16/14 Q1021 TEMPO BKN010
  • 230100Z AUTO 34003KT CAVOK 16/14 Q1021 NOSIG
  • 230030Z AUTO 34003KT 9999 OVC049 17/14 Q1021 NOSIG
  • 230000Z AUTO 34004KT 9999 FEW017 BKN045 17/14 Q1021 NOSIG
  • 222330Z AUTO 32007KT CAVOK 16/14 Q1021 NOSIG

TAF TAF LFCR
Valide du 23 à 00h jusqu'au 24 à 00h UTC


222300Z 2300/2324 32004KT 9999 SCT025
PROB40
TEMPO 2303/2306 BKN010
BECMG 2321/2323 26008KT BKN025
Pas de NOTAMs connus pour ce terrain.



MET'MAP, la Météo Aéronautique d'un coup d'oeil ! - Copyright ORBIFLY Décembre 2007 - Disclaimer

ORBIFLY MET'MAP TEAM :

Programmation & Développement : Alexandra Zaïnal
Conception & Développement : Baudouin d'Aumeries
Co-Programmation & Développement : Marc-Olivier Méhu
Soutien technique & logistique : Manuel Goepfert

Contact : metmap@orbifly.com




SOURCES & CREDITS :

   NOAA